Strona główna
METAR-TAF:

METAR-TAF

Lotnisko :

Caldwell, New Jersey, Stany Zjednoczone

Szerokość geograficzna: 40-52-35N, Długość geograficzna: 074-16-59W, wysokość: 52 m

Aktualna obserwacja pogody

Raport powstał 51 minut temu, godzina 22:06 UTC
Wiatr 7 kt od północny wschód, zmienny między północ i wschód
Temperatura 3°C
Wilgotność 100%
Ciśnienie 1011 hPa
Widzialność: 4.0 km
Przerywane chmury na wysokości 1100 ft
Zachmurzenie całkowite na wysokości 2200 ft
słaby deszcz, zamglenie

METAR: KCDW 162206Z 04007KT 010V080 2 1/2SM -RA BR BKN011 OVC022 03/03 A2984 RMK AO2 P0002 T00330033

czas: 17:57 (22:57 UTC)


TAF: brakujący

Obserwacja i prognoza pogody dla ponad 4000 lotnisk (raport METAR i TAF).

Dostępne stacje oznaczono żółtymi i czerwonymi punktami na mapie.

Najedź kursorem aby zobaczyć nazwę stacji.

Kliknij aby zobaczyć obserwacje i prognozy pogody.

Aby zmienić mapę: kliknij na zielony przycisk z czarnym krzyżykiem, aby powiększyć; na zielony przycisk z myślnikiem, aby pomniejszyć; na zielone strzałki, aby przejść do map sąsiednich.


METAR-TAF: